Terminal Aerodrome Forecast
Issued by NWS

Home | Current Version | Previous Version | Text Only | Print | Product List | Glossary On
Versions: 1 2 3 4 5 6 7 8 9 10 11 12 13 14 15 16 17 18 19 20 21 22 23
000
FTUS44 KHGX 160524
TAFLBX
TAF
KLBX 160524Z 1606/1706 VRB03KT P6SM SKC
     FM161500 11011KT P6SM FEW025 SCT250
     FM162100 14012KT P6SM FEW030 SCT250
     FM170200 14006KT P6SM FEW025 BKN250=

USA.gov is the U.S. government's official web portal to all federal, state and local government web resources and services.